createdAt,value
2022-08-21T00:00:48.268Z,100786.66
2022-08-21T00:03:16.055Z,100786.63
2022-08-21T00:05:47.898Z,100793.78
2022-08-21T00:08:15.137Z,100791.81
2022-08-21T00:10:43.908Z,100788.63
2022-08-21T00:13:12.091Z,100797.38
2022-08-21T00:15:41.202Z,100790.25
2022-08-21T00:18:12.708Z,100785.47
2022-08-21T00:20:40.884Z,100784.25
2022-08-21T00:23:08.712Z,100776.69
2022-08-21T00:25:36.123Z,100772.31
2022-08-21T00:28:04.006Z,100777.50
2022-08-21T00:30:31.815Z,100776.31
2022-08-21T00:32:59.373Z,100775.13
2022-08-21T00:35:30.653Z,100781.50
2022-08-21T00:37:58.698Z,100769.19
2022-08-21T00:40:30.412Z,100765.59
2022-08-21T00:42:58.500Z,100761.66
2022-08-21T00:45:26.491Z,100763.25
2022-08-21T00:47:56.230Z,100770.00
2022-08-21T00:50:27.239Z,100769.63
2022-08-21T00:52:54.439Z,100772.00
2022-08-21T00:55:24.319Z,100773.19
2022-08-21T00:57:55.456Z,100772.34
2022-08-21T01:00:31.069Z,100762.00
2022-08-21T01:03:00.248Z,100762.44
2022-08-21T01:05:28.503Z,100760.06
2022-08-21T01:07:58.238Z,100753.72
2022-08-21T01:10:25.925Z,100766.44
2022-08-21T01:12:56.361Z,100762.44
2022-08-21T01:15:30.286Z,100750.50
2022-08-21T01:17:57.981Z,100761.66
2022-08-21T01:20:32.284Z,100758.84
2022-08-21T01:23:04.303Z,100754.50
2022-08-21T01:25:32.945Z,100746.94
2022-08-21T01:28:05.967Z,100748.53
2022-08-21T01:30:35.955Z,100744.53
2022-08-21T01:33:03.598Z,100741.34
2022-08-21T01:35:30.936Z,100738.56
2022-08-21T01:37:58.288Z,100737.78
2022-08-21T01:40:26.028Z,100733.00
2022-08-21T01:42:54.600Z,100730.63
2022-08-21T01:45:22.305Z,100722.28
2022-08-21T01:47:49.567Z,100726.25
2022-08-21T01:50:19.206Z,100725.06
2022-08-21T01:52:46.568Z,100721.88
2022-08-21T01:55:15.672Z,100727.44
2022-08-21T01:57:43.496Z,100721.47
2022-08-21T02:00:14.107Z,100720.66
2022-08-21T02:02:45.186Z,100718.25
2022-08-21T02:05:14.000Z,100718.66
2022-08-21T02:07:50.921Z,100723.00
2022-08-21T02:10:23.499Z,100720.22
2022-08-21T02:12:51.024Z,100712.72
2022-08-21T02:15:19.862Z,100712.72
2022-08-21T02:17:50.625Z,100719.81
2022-08-21T02:20:31.271Z,100718.22
2022-08-21T02:22:59.066Z,100721.00
2022-08-21T02:25:28.318Z,100722.56
2022-08-21T02:27:56.391Z,100721.34
2022-08-21T02:30:32.812Z,100719.78
2022-08-21T02:33:00.645Z,100721.69
2022-08-21T02:35:28.871Z,100717.69
2022-08-21T02:37:59.162Z,100706.56
2022-08-21T02:40:30.087Z,100710.91
2022-08-21T02:42:57.728Z,100709.69
2022-08-21T02:45:25.275Z,100711.66
2022-08-21T02:47:55.907Z,100714.41
2022-08-21T02:50:28.272Z,100710.41
2022-08-21T02:52:56.370Z,100711.56
2022-08-21T02:55:27.397Z,100708.78
2022-08-21T02:57:56.158Z,100707.56
2022-08-21T03:00:25.391Z,100705.16
2022-08-21T03:02:53.063Z,100701.19
2022-08-21T03:05:20.867Z,100708.72
2022-08-21T03:07:50.604Z,100699.97
2022-08-21T03:10:18.153Z,100702.78
2022-08-21T03:12:45.301Z,100707.56
2022-08-21T03:15:18.701Z,100706.34
2022-08-21T03:17:47.159Z,100711.13
2022-08-21T03:20:16.613Z,100707.56
2022-08-21T03:22:45.726Z,100707.97
2022-08-21T03:25:29.604Z,100704.81
2022-08-21T03:28:13.417Z,100715.13
2022-08-21T03:30:46.439Z,100706.03
2022-08-21T03:33:15.147Z,100704.84
2022-08-21T03:35:45.000Z,100702.47
2022-08-21T03:38:14.207Z,100709.25
2022-08-21T03:40:43.057Z,100705.69
2022-08-21T03:43:11.362Z,100707.66
2022-08-21T03:45:40.243Z,100712.03
2022-08-21T03:48:08.839Z,100709.69
2022-08-21T03:50:40.818Z,100704.16
2022-08-21T03:53:17.138Z,100706.56
2022-08-21T03:55:50.399Z,100703.78
2022-08-21T03:58:20.111Z,100705.78
2022-08-21T04:00:50.222Z,100708.19
2022-08-21T04:03:18.613Z,100712.16
2022-08-21T04:05:47.090Z,100717.31
2022-08-21T04:08:15.915Z,100709.78
2022-08-21T04:10:45.032Z,100704.25
2022-08-21T04:13:12.557Z,100711.41
2022-08-21T04:15:40.010Z,100715.00
2022-08-21T04:18:07.230Z,100714.22
2022-08-21T04:20:35.754Z,100722.56
2022-08-21T04:23:04.600Z,100727.31
2022-08-21T04:25:31.946Z,100724.91
2022-08-21T04:27:59.580Z,100734.47
2022-08-21T04:30:28.134Z,100730.09
2022-08-21T04:32:58.290Z,100726.13
2022-08-21T04:35:28.253Z,100730.91
2022-08-21T04:37:55.871Z,100723.34
2022-08-21T04:40:25.946Z,100741.63
2022-08-21T04:42:57.783Z,100730.56
2022-08-21T04:45:28.487Z,100736.19
2022-08-21T04:47:58.531Z,100733.03
2022-08-21T04:50:35.524Z,100723.47
2022-08-21T04:53:10.875Z,100728.66
2022-08-21T04:55:39.008Z,100726.13
2022-08-21T04:58:09.916Z,100725.31
2022-08-21T05:00:38.285Z,100724.88
2022-08-21T05:03:08.413Z,100730.03
2022-08-21T05:05:35.874Z,100727.53
2022-08-21T05:08:04.557Z,100726.41
2022-08-21T05:10:39.325Z,100731.09
2022-08-21T05:13:14.558Z,100726.41
2022-08-21T05:15:42.233Z,100727.66
2022-08-21T05:18:10.102Z,100738.50
2022-08-21T05:20:37.625Z,100723.44
2022-08-21T05:23:12.867Z,100727.59
2022-08-21T05:25:40.584Z,100735.59
2022-08-21T05:28:09.023Z,100736.63
2022-08-21T05:30:37.495Z,100721.59
2022-08-21T05:33:07.201Z,100738.59
2022-08-21T05:35:34.928Z,100732.16
2022-08-21T05:38:02.559Z,100736.56
2022-08-21T05:40:30.079Z,100740.50
2022-08-21T05:42:58.000Z,100746.81
2022-08-21T05:45:42.254Z,100745.38
2022-08-21T05:48:25.053Z,100737.03
2022-08-21T05:50:53.771Z,100735.78
2022-08-21T05:53:22.898Z,100731.25
2022-08-21T05:55:51.393Z,100736.72
2022-08-21T05:58:21.251Z,100729.47
2022-08-21T06:00:50.434Z,100730.47
2022-08-21T06:03:39.566Z,100729.34
2022-08-21T06:06:07.299Z,100727.41
2022-08-21T06:08:35.242Z,100725.09
2022-08-21T06:11:04.578Z,100713.53
2022-08-21T06:13:31.763Z,100715.06
2022-08-21T06:16:16.364Z,100724.88
2022-08-21T06:18:45.900Z,100727.47
2022-08-21T06:21:14.711Z,100729.81
2022-08-21T06:23:42.590Z,100723.63
2022-08-21T06:26:12.364Z,100727.75
2022-08-21T06:28:40.371Z,100728.13
2022-08-21T06:31:23.305Z,100729.28
2022-08-21T06:33:51.805Z,100723.88
2022-08-21T06:36:19.395Z,100727.28
2022-08-21T06:38:51.097Z,100729.06
2022-08-21T06:41:24.169Z,100727.97
2022-08-21T06:43:55.001Z,100721.84
2022-08-21T06:46:22.307Z,100734.91
2022-08-21T06:48:49.602Z,100740.59
2022-08-21T06:51:17.738Z,100739.47
2022-08-21T06:53:45.089Z,100736.25
2022-08-21T06:56:12.273Z,100739.56
2022-08-21T06:58:39.610Z,100739.84
2022-08-21T07:01:06.794Z,100742.41
2022-08-21T07:03:37.654Z,100739.59
2022-08-21T07:06:06.639Z,100735.34
2022-08-21T07:08:34.456Z,100750.72
2022-08-21T07:11:04.528Z,100743.47
2022-08-21T07:13:31.735Z,100744.56
2022-08-21T07:16:03.651Z,100746.53
2022-08-21T07:18:32.433Z,100738.44
2022-08-21T07:21:01.768Z,100748.13
2022-08-21T07:23:33.259Z,100742.22
2022-08-21T07:26:01.745Z,100743.31
2022-08-21T07:28:30.282Z,100741.50
2022-08-21T07:30:59.850Z,100738.44
2022-08-21T07:33:30.067Z,100736.31
2022-08-21T07:35:57.632Z,100746.75
2022-08-21T07:38:26.055Z,100738.22
2022-08-21T07:40:55.644Z,100746.16
2022-08-21T07:43:22.983Z,100743.91
2022-08-21T07:45:55.080Z,100730.00
2022-08-21T07:48:23.612Z,100737.88
2022-08-21T07:50:52.223Z,100740.41
2022-08-21T07:53:19.475Z,100740.22
2022-08-21T07:55:46.569Z,100735.97
2022-08-21T07:58:13.968Z,100742.06
2022-08-21T08:00:42.204Z,100743.81
2022-08-21T08:03:09.749Z,100747.31
2022-08-21T08:05:41.087Z,100745.34
2022-08-21T08:08:08.716Z,100740.53
2022-08-21T08:10:37.190Z,100736.28
2022-08-21T08:13:04.800Z,100735.50
2022-08-21T08:15:36.950Z,100731.44
2022-08-21T08:18:05.161Z,100736.19
2022-08-21T08:20:32.497Z,100738.66
2022-08-21T08:23:00.115Z,100735.41
2022-08-21T08:25:31.820Z,100730.78
2022-08-21T08:28:16.629Z,100733.69
2022-08-21T08:30:47.323Z,100730.09
2022-08-21T08:33:15.874Z,100730.09
2022-08-21T08:35:46.073Z,100724.91
2022-08-21T08:38:13.383Z,100733.13
2022-08-21T08:40:47.153Z,100730.53
2022-08-21T08:43:15.496Z,100729.81
2022-08-21T08:45:47.949Z,100730.91
2022-08-21T08:48:21.165Z,100727.34
2022-08-21T08:50:53.579Z,100717.06
2022-08-21T08:53:29.449Z,100717.72
2022-08-21T08:56:00.998Z,100714.91
2022-08-21T08:58:32.287Z,100710.47
2022-08-21T09:01:00.224Z,100712.75
2022-08-21T09:03:29.488Z,100709.38
2022-08-21T09:06:06.871Z,100698.41
2022-08-21T09:08:41.116Z,100707.66
2022-08-21T09:11:19.913Z,100700.25
2022-08-21T09:14:05.647Z,100703.59
2022-08-21T09:16:59.690Z,100692.31
2022-08-21T09:19:45.254Z,100696.13
2022-08-21T09:22:20.426Z,100699.53
2022-08-21T09:24:57.595Z,100696.50
2022-08-21T09:27:25.167Z,100696.50
2022-08-21T09:29:55.518Z,100690.44
2022-08-21T09:32:37.775Z,100689.38
2022-08-21T09:35:16.889Z,100688.09
2022-08-21T09:37:55.472Z,100688.00
2022-08-21T09:40:41.060Z,100682.41
2022-08-21T09:43:19.903Z,100687.94
2022-08-21T09:45:48.910Z,100678.59
2022-08-21T09:48:32.441Z,100671.59
2022-08-21T09:51:10.319Z,100668.84
2022-08-21T09:53:44.163Z,100679.78
2022-08-21T09:56:49.063Z,100682.03
2022-08-21T09:59:20.692Z,100669.84
2022-08-21T10:01:51.787Z,100672.00
2022-08-21T10:04:25.076Z,100664.97
2022-08-21T10:06:52.354Z,100657.91
2022-08-21T10:09:25.305Z,100655.69
2022-08-21T10:12:30.183Z,100662.44
2022-08-21T10:15:11.498Z,100656.50
2022-08-21T10:18:09.059Z,100656.44
2022-08-21T10:20:47.284Z,100655.00
2022-08-21T10:23:49.812Z,100653.16
2022-08-21T10:26:48.850Z,100650.13
2022-08-21T10:29:35.160Z,100639.09
2022-08-21T10:32:15.664Z,100639.81
2022-08-21T10:35:05.505Z,100640.63
2022-08-21T10:37:58.759Z,100632.19
2022-08-21T10:40:57.946Z,100635.88
2022-08-21T10:43:53.582Z,100629.09
2022-08-21T10:46:44.416Z,100626.81
2022-08-21T10:49:14.436Z,100626.81
2022-08-21T10:51:56.260Z,100626.66
2022-08-21T10:54:23.707Z,100628.84
2022-08-21T10:56:59.977Z,100625.88
2022-08-21T10:59:39.718Z,100623.00
2022-08-21T11:02:09.906Z,100620.22
2022-08-21T11:04:53.714Z,100623.72
2022-08-21T11:07:34.049Z,100615.16
2022-08-21T11:10:26.179Z,100607.47
2022-08-21T11:13:01.625Z,100606.75
2022-08-21T11:15:36.678Z,100602.50
2022-08-21T11:18:42.808Z,100604.19
2022-08-21T11:21:28.270Z,100606.69
2022-08-21T11:24:10.290Z,100596.41
2022-08-21T11:26:51.129Z,100601.16
2022-08-21T11:29:21.576Z,100591.41
2022-08-21T11:32:02.396Z,100598.94
2022-08-21T11:34:48.697Z,100594.69
2022-08-21T11:37:23.390Z,100595.69
2022-08-21T11:40:16.664Z,100593.72
2022-08-21T11:43:13.166Z,100594.72
2022-08-21T11:45:56.949Z,100584.22
2022-08-21T11:48:26.994Z,100592.31
2022-08-21T11:50:56.520Z,100589.78
2022-08-21T11:53:34.927Z,100577.41
2022-08-21T11:56:35.451Z,100570.13
2022-08-21T11:59:26.030Z,100580.19
2022-08-21T12:01:54.428Z,100563.69
2022-08-21T12:04:37.167Z,100562.56
2022-08-21T12:07:15.938Z,100573.38
2022-08-21T12:09:55.279Z,100574.25
2022-08-21T12:12:27.415Z,100567.81
2022-08-21T12:15:20.849Z,100567.44
2022-08-21T12:17:56.748Z,100560.06
2022-08-21T12:20:50.168Z,100550.94
2022-08-21T12:23:31.421Z,100557.75
2022-08-21T12:26:26.391Z,100556.59
2022-08-21T12:29:11.910Z,100551.66
2022-08-21T12:31:54.105Z,100547.56
2022-08-21T12:34:26.098Z,100550.69
2022-08-21T12:37:04.859Z,100543.91
2022-08-21T12:39:35.319Z,100542.53
2022-08-21T12:42:14.708Z,100541.09
2022-08-21T12:44:57.181Z,100532.56
2022-08-21T12:47:45.286Z,100534.88
2022-08-21T12:50:48.921Z,100526.16
2022-08-21T12:53:25.354Z,100523.44
2022-08-21T12:55:52.852Z,100526.19
2022-08-21T12:58:25.920Z,100521.59
2022-08-21T13:01:08.151Z,100523.59
2022-08-21T13:03:38.694Z,100516.53
2022-08-21T13:06:07.675Z,100513.91
2022-08-21T13:08:41.681Z,100521.03
2022-08-21T13:11:14.925Z,100519.78
2022-08-21T13:13:46.831Z,100507.91
2022-08-21T13:16:25.655Z,100511.97
2022-08-21T13:18:58.063Z,100510.56
2022-08-21T13:21:49.608Z,100513.56
2022-08-21T13:24:41.945Z,100512.50
2022-08-21T13:27:23.502Z,100499.84
2022-08-21T13:30:02.791Z,100507.59
2022-08-21T13:32:33.456Z,100501.13
2022-08-21T13:35:10.429Z,100508.06
2022-08-21T13:37:41.603Z,100510.22
2022-08-21T13:40:12.711Z,100510.06
2022-08-21T13:42:43.102Z,100507.38
2022-08-21T13:45:32.453Z,100502.97
2022-08-21T13:48:06.065Z,100515.22
2022-08-21T13:50:36.445Z,100503.75
2022-08-21T13:53:07.200Z,100501.47
2022-08-21T13:55:42.861Z,100500.88
2022-08-21T13:58:12.028Z,100490.84
2022-08-21T14:00:51.846Z,100504.19
2022-08-21T14:03:43.966Z,100500.69
2022-08-21T14:06:21.961Z,100488.56
2022-08-21T14:09:00.243Z,100494.16
2022-08-21T14:11:35.706Z,100487.84
2022-08-21T14:14:17.979Z,100497.16
2022-08-21T14:16:55.300Z,100509.63
2022-08-21T14:19:44.871Z,100504.22
2022-08-21T14:22:31.006Z,100505.06
2022-08-21T14:25:21.233Z,100507.84
2022-08-21T14:28:09.603Z,100509.47
2022-08-21T14:30:43.570Z,100513.13
2022-08-21T14:33:14.337Z,100510.50
2022-08-21T14:35:43.025Z,100511.72
2022-08-21T14:38:16.538Z,100501.75
2022-08-21T14:40:45.306Z,100500.31
2022-08-21T14:43:16.253Z,100498.03
2022-08-21T14:45:45.098Z,100500.22
2022-08-21T14:48:12.672Z,100495.50
2022-08-21T14:50:41.570Z,100493.16
2022-08-21T14:53:11.078Z,100488.31
2022-08-21T14:55:58.908Z,100492.97
2022-08-21T14:58:26.686Z,100487.63
2022-08-21T15:00:55.657Z,100493.19
2022-08-21T15:03:23.091Z,100484.13
2022-08-21T15:05:51.091Z,100484.13
2022-08-21T15:08:19.075Z,100483.19
2022-08-21T15:11:10.531Z,100485.78
2022-08-21T15:13:38.024Z,100481.25
2022-08-21T15:16:05.343Z,100480.50
2022-08-21T15:18:33.966Z,100483.25
2022-08-21T15:21:01.456Z,100481.81
2022-08-21T15:23:28.634Z,100481.53
2022-08-21T15:25:59.760Z,100484.09
2022-08-21T15:28:31.595Z,100482.03
2022-08-21T15:31:01.532Z,100478.06
2022-08-21T15:33:29.994Z,100466.16
2022-08-21T15:35:57.457Z,100473.69
2022-08-21T15:38:24.616Z,100474.03
2022-08-21T15:40:52.689Z,100472.38
2022-08-21T15:43:30.673Z,100470.28
2022-08-21T15:46:00.954Z,100471.84
2022-08-21T15:48:29.219Z,100468.75
2022-08-21T15:50:56.409Z,100470.47
2022-08-21T15:53:24.266Z,100468.69
2022-08-21T15:55:51.528Z,100470.03
2022-08-21T15:58:21.150Z,100465.94
2022-08-21T16:00:48.531Z,100474.28
2022-08-21T16:03:18.050Z,100467.53
2022-08-21T16:05:46.286Z,100460.84
2022-08-21T16:08:13.541Z,100461.22
2022-08-21T16:10:41.259Z,100457.41
2022-08-21T16:13:24.176Z,100458.28
2022-08-21T16:15:51.858Z,100458.13
2022-08-21T16:18:19.733Z,100455.91
2022-08-21T16:20:47.058Z,100460.00
2022-08-21T16:23:14.370Z,100461.63
2022-08-21T16:25:42.475Z,100456.56
2022-08-21T16:28:13.724Z,100460.38
2022-08-21T16:30:42.293Z,100456.75
2022-08-21T16:33:23.682Z,100459.19
2022-08-21T16:35:51.917Z,100465.09
2022-08-21T16:38:19.567Z,100463.09
2022-08-21T16:40:47.032Z,100460.22
2022-08-21T16:43:14.457Z,100453.00
2022-08-21T16:45:42.965Z,100453.75
2022-08-21T16:48:10.348Z,100449.03
2022-08-21T16:50:38.321Z,100459.53
2022-08-21T16:53:07.068Z,100452.81
2022-08-21T16:55:38.559Z,100451.72
2022-08-21T16:58:20.501Z,100451.78
2022-08-21T17:00:48.160Z,100456.63
2022-08-21T17:03:21.446Z,100449.28
2022-08-21T17:05:48.890Z,100452.28
2022-08-21T17:08:16.007Z,100451.13
2022-08-21T17:10:48.786Z,100456.34
2022-08-21T17:13:16.519Z,100452.00
2022-08-21T17:15:43.816Z,100446.91
2022-08-21T17:18:14.617Z,100454.91
2022-08-21T17:20:41.906Z,100443.00
2022-08-21T17:23:09.805Z,100451.44
2022-08-21T17:25:40.269Z,100452.28
2022-08-21T17:28:08.382Z,100457.56
2022-08-21T17:30:35.725Z,100456.38
2022-08-21T17:33:03.119Z,100453.25
2022-08-21T17:35:30.349Z,100459.63
2022-08-21T17:37:57.657Z,100461.91
2022-08-21T17:40:24.941Z,100463.09
2022-08-21T17:42:52.220Z,100460.72
2022-08-21T17:45:20.925Z,100460.28
2022-08-21T17:47:48.161Z,100460.34
2022-08-21T17:50:22.864Z,100455.53
2022-08-21T17:52:50.964Z,100453.13
2022-08-21T17:55:20.519Z,100464.72
2022-08-21T17:57:50.583Z,100464.72
2022-08-21T18:00:19.245Z,100466.72
2022-08-21T18:02:51.382Z,100467.16
2022-08-21T18:05:18.613Z,100467.03
2022-08-21T18:07:46.035Z,100465.75
2022-08-21T18:10:13.315Z,100466.59
2022-08-21T18:12:42.765Z,100467.03
2022-08-21T18:15:14.201Z,100472.63
2022-08-21T18:17:45.564Z,100473.84
2022-08-21T18:20:15.740Z,100474.31
2022-08-21T18:22:43.019Z,100479.53
2022-08-21T18:25:10.949Z,100483.19
2022-08-21T18:27:39.227Z,100474.81
2022-08-21T18:30:08.081Z,100481.97
2022-08-21T18:32:35.463Z,100481.13
2022-08-21T18:35:07.098Z,100479.13
2022-08-21T18:37:37.831Z,100478.34
2022-08-21T18:40:08.835Z,100481.13
2022-08-21T18:42:42.617Z,100486.31
2022-08-21T18:45:21.074Z,100481.53
2022-08-21T18:47:53.054Z,100489.13
2022-08-21T18:50:24.840Z,100484.75
2022-08-21T18:52:53.638Z,100496.78
2022-08-21T18:55:24.419Z,100501.13
2022-08-21T18:57:54.116Z,100495.56
2022-08-21T19:00:26.518Z,100494.75
2022-08-21T19:02:54.371Z,100496.34
2022-08-21T19:05:23.033Z,100505.09
2022-08-21T19:07:51.778Z,100504.72
2022-08-21T19:10:27.641Z,100498.34
2022-08-21T19:12:58.189Z,100501.13
2022-08-21T19:15:25.883Z,100513.53
2022-08-21T19:17:54.484Z,100517.16
2022-08-21T19:20:30.652Z,100520.34
2022-08-21T19:22:58.353Z,100511.63
2022-08-21T19:25:33.919Z,100524.81
2022-08-21T19:31:10.936Z,100532.41
2022-08-21T19:33:42.145Z,100525.16
2022-08-21T19:36:13.029Z,100526.38
2022-08-21T19:38:40.685Z,100534.75
2022-08-21T19:41:11.625Z,100522.81
2022-08-21T19:43:50.028Z,100531.59
2022-08-21T19:46:39.943Z,100528.38
2022-08-21T19:49:15.740Z,100530.00
2022-08-21T19:51:43.041Z,100535.22
2022-08-21T19:54:17.430Z,100528.44
2022-08-21T19:56:45.565Z,100536.38
2022-08-21T19:59:17.706Z,100525.94
2022-08-21T20:01:45.470Z,100521.13
2022-08-21T20:04:18.263Z,100519.13
2022-08-21T20:06:47.827Z,100515.47
2022-08-21T20:09:17.202Z,100518.63
2022-08-21T20:11:53.599Z,100523.38
2022-08-21T20:14:25.659Z,100525.78
2022-08-21T20:16:55.059Z,100524.16
2022-08-21T20:19:22.622Z,100528.91
2022-08-21T20:21:50.102Z,100533.38
2022-08-21T20:24:17.437Z,100538.19
2022-08-21T20:29:38.996Z,100534.31
2022-08-21T20:32:12.298Z,100534.75
2022-08-21T20:34:40.889Z,100541.63
2022-08-21T20:39:55.424Z,100533.75
2022-08-21T20:42:25.107Z,100545.75
2022-08-21T20:44:54.002Z,100544.56
2022-08-21T20:47:21.528Z,100547.00
2022-08-21T20:49:56.377Z,100544.25
2022-08-21T20:52:27.124Z,100555.09
2022-08-21T20:55:04.119Z,100561.50
2022-08-21T20:57:51.067Z,100550.34
2022-08-21T21:00:21.404Z,100550.34
2022-08-21T21:03:00.161Z,100539.97
2022-08-21T21:05:36.650Z,100547.97
2022-08-21T21:08:14.661Z,100546.38
2022-08-21T21:10:51.673Z,100551.56
2022-08-21T21:13:34.864Z,100543.59
2022-08-21T21:16:12.917Z,100536.06
2022-08-21T21:18:53.380Z,100540.41
2022-08-21T21:21:23.496Z,100532.84
2022-08-21T21:24:02.665Z,100534.47
2022-08-21T21:26:49.008Z,100530.50
2022-08-21T21:35:05.522Z,100547.78
2022-08-21T21:37:57.950Z,100544.63
2022-08-21T21:40:44.870Z,100546.66
2022-08-21T21:43:30.613Z,100543.16
2022-08-21T21:46:24.756Z,100553.09
2022-08-21T21:53:12.890Z,100538.81
2022-08-21T21:55:59.956Z,100537.59
2022-08-21T21:59:00.954Z,100528.84
2022-08-21T22:02:20.961Z,100528.06
2022-08-21T22:05:33.597Z,100533.69
2022-08-21T22:08:30.169Z,100524.94
2022-08-21T22:11:08.973Z,100520.56
2022-08-21T22:14:11.113Z,100512.22
2022-08-21T22:16:39.685Z,100511.44
2022-08-21T22:19:31.316Z,100519.38
2022-08-21T22:22:16.654Z,100519.03
2022-08-21T22:24:48.199Z,100519.81
2022-08-21T22:27:36.894Z,100512.63
2022-08-21T22:30:09.467Z,100516.59
2022-08-21T22:32:42.767Z,100498.28
2022-08-21T22:35:22.917Z,100505.03
2022-08-21T22:37:57.994Z,100497.06
2022-08-21T22:40:29.991Z,100509.88
2022-08-21T22:46:05.881Z,100508.34
2022-08-21T22:48:51.642Z,100504.38
2022-08-21T22:51:35.676Z,100503.22
2022-08-21T22:54:04.934Z,100496.84
2022-08-21T22:56:49.544Z,100488.09
2022-08-21T22:59:35.611Z,100486.16
2022-08-21T23:02:21.934Z,100485.72
2022-08-21T23:04:50.679Z,100472.56
2022-08-21T23:07:43.611Z,100469.44
2022-08-21T23:10:39.812Z,100470.28
2022-08-21T23:13:20.270Z,100456.72
2022-08-21T23:16:07.165Z,100452.78
2022-08-21T23:18:55.266Z,100440.88
2022-08-21T23:21:42.297Z,100438.50
2022-08-21T23:24:39.464Z,100439.72
2022-08-21T23:27:51.066Z,100449.69
2022-08-21T23:30:23.901Z,100441.75
2022-08-21T23:33:15.914Z,100448.13
2022-08-21T23:36:07.513Z,100443.38
2022-08-21T23:38:43.202Z,100427.50
2022-08-21T23:41:47.215Z,100431.06
2022-08-21T23:44:46.925Z,100432.28
2022-08-21T23:47:43.533Z,100425.97
2022-08-21T23:50:13.754Z,100430.75
2022-08-21T23:53:09.042Z,100428.75
2022-08-21T23:55:57.882Z,100430.38
